sensor_id;sensor_type;location;lat;lon;timestamp;temperature;humidity
285;DHT22;127;48.770;9.212;2023-05-14T00:01:23;11.80;1.00
285;DHT22;127;48.770;9.212;2023-05-14T00:03:55;11.90;1.00
285;DHT22;127;48.770;9.212;2023-05-14T00:06:24;11.90;1.00
285;DHT22;127;48.770;9.212;2023-05-14T00:08:56;12.00;1.00
285;DHT22;127;48.770;9.212;2023-05-14T00:11:25;12.00;1.00
285;DHT22;127;48.770;9.212;2023-05-14T00:13:54;12.00;1.00
285;DHT22;127;48.770;9.212;2023-05-14T00:16:27;11.80;1.00
285;DHT22;127;48.770;9.212;2023-05-14T00:18:59;11.80;1.00
285;DHT22;127;48.770;9.212;2023-05-14T00:21:33;11.90;1.00
285;DHT22;127;48.770;9.212;2023-05-14T00:24:02;11.80;1.00
285;DHT22;127;48.770;9.212;2023-05-14T00:26:34;11.80;1.00
285;DHT22;127;48.770;9.212;2023-05-14T00:29:08;11.70;1.00
285;DHT22;127;48.770;9.212;2023-05-14T00:31:42;11.60;1.00
285;DHT22;127;48.770;9.212;2023-05-14T00:34:17;11.70;1.00
285;DHT22;127;48.770;9.212;2023-05-14T00:36:47;11.70;1.00
285;DHT22;127;48.770;9.212;2023-05-14T00:39:20;11.70;1.00
285;DHT22;127;48.770;9.212;2023-05-14T00:41:54;11.70;1.00
285;DHT22;127;48.770;9.212;2023-05-14T00:44:25;11.70;1.00
285;DHT22;127;48.770;9.212;2023-05-14T00:46:53;11.70;1.00
285;DHT22;127;48.770;9.212;2023-05-14T00:49:35;11.70;1.00
285;DHT22;127;48.770;9.212;2023-05-14T00:52:06;11.50;1.00
285;DHT22;127;48.770;9.212;2023-05-14T00:54:35;11.60;1.00
285;DHT22;127;48.770;9.212;2023-05-14T00:57:05;11.60;1.00
285;DHT22;127;48.770;9.212;2023-05-14T00:59:35;11.50;1.00
285;DHT22;127;48.770;9.212;2023-05-14T01:02:06;11.40;1.00
285;DHT22;127;48.770;9.212;2023-05-14T01:04:40;11.30;1.00
285;DHT22;127;48.770;9.212;2023-05-14T01:07:15;11.30;1.00
285;DHT22;127;48.770;9.212;2023-05-14T01:09:48;11.10;1.00
285;DHT22;127;48.770;9.212;2023-05-14T01:12:28;11.00;1.00
285;DHT22;127;48.770;9.212;2023-05-14T01:15:08;10.90;1.00
285;DHT22;127;48.770;9.212;2023-05-14T01:17:43;10.80;1.00
285;DHT22;127;48.770;9.212;2023-05-14T01:20:16;10.80;1.00
285;DHT22;127;48.770;9.212;2023-05-14T01:22:52;10.60;1.00
285;DHT22;127;48.770;9.212;2023-05-14T01:25:21;10.60;1.00
285;DHT22;127;48.770;9.212;2023-05-14T01:28:02;10.50;1.00
285;DHT22;127;48.770;9.212;2023-05-14T01:30:35;10.40;1.00
285;DHT22;127;48.770;9.212;2023-05-14T01:33:09;10.30;1.00
285;DHT22;127;48.770;9.212;2023-05-14T01:35:38;10.20;1.00
285;DHT22;127;48.770;9.212;2023-05-14T01:38:14;10.10;1.00
285;DHT22;127;48.770;9.212;2023-05-14T01:40:58;10.10;1.00
285;DHT22;127;48.770;9.212;2023-05-14T01:43:28;10.00;1.00
285;DHT22;127;48.770;9.212;2023-05-14T01:45:57;10.00;1.00
285;DHT22;127;48.770;9.212;2023-05-14T01:48:26;9.90;1.00
285;DHT22;127;48.770;9.212;2023-05-14T01:50:55;9.90;1.00
285;DHT22;127;48.770;9.212;2023-05-14T01:53:27;9.80;1.00
285;DHT22;127;48.770;9.212;2023-05-14T01:55:56;9.70;1.00
285;DHT22;127;48.770;9.212;2023-05-14T01:58:24;9.60;1.00
285;DHT22;127;48.770;9.212;2023-05-14T02:00:53;9.60;1.00
285;DHT22;127;48.770;9.212;2023-05-14T02:03:22;9.60;1.00
285;DHT22;127;48.770;9.212;2023-05-14T02:05:51;9.60;1.00
285;DHT22;127;48.770;9.212;2023-05-14T02:08:19;9.60;1.00
285;DHT22;127;48.770;9.212;2023-05-14T02:10:53;9.60;1.00
285;DHT22;127;48.770;9.212;2023-05-14T02:13:39;9.60;1.00
285;DHT22;127;48.770;9.212;2023-05-14T02:16:08;9.70;1.00
285;DHT22;127;48.770;9.212;2023-05-14T02:18:37;9.70;1.00
285;DHT22;127;48.770;9.212;2023-05-14T02:21:09;9.80;1.00
285;DHT22;127;48.770;9.212;2023-05-14T02:23:37;9.80;1.00
285;DHT22;127;48.770;9.212;2023-05-14T02:26:10;9.80;1.00
285;DHT22;127;48.770;9.212;2023-05-14T02:28:39;9.90;1.00
285;DHT22;127;48.770;9.212;2023-05-14T02:31:08;9.90;1.00
285;DHT22;127;48.770;9.212;2023-05-14T02:33:36;10.00;1.00
285;DHT22;127;48.770;9.212;2023-05-14T02:36:08;10.00;1.00
285;DHT22;127;48.770;9.212;2023-05-14T02:38:37;9.90;1.00
285;DHT22;127;48.770;9.212;2023-05-14T02:41:05;10.00;1.00
285;DHT22;127;48.770;9.212;2023-05-14T02:43:43;10.10;1.00
285;DHT22;127;48.770;9.212;2023-05-14T02:46:13;10.20;1.00
285;DHT22;127;48.770;9.212;2023-05-14T02:48:42;10.20;1.00
285;DHT22;127;48.770;9.212;2023-05-14T02:51:11;10.20;1.00
285;DHT22;127;48.770;9.212;2023-05-14T02:53:46;10.30;1.00
285;DHT22;127;48.770;9.212;2023-05-14T02:56:17;10.30;1.00
285;DHT22;127;48.770;9.212;2023-05-14T02:58:52;10.30;1.00
285;DHT22;127;48.770;9.212;2023-05-14T03:01:21;10.30;1.00
285;DHT22;127;48.770;9.212;2023-05-14T03:03:55;10.30;1.00
285;DHT22;127;48.770;9.212;2023-05-14T03:06:27;10.30;1.00
285;DHT22;127;48.770;9.212;2023-05-14T03:08:58;10.40;1.00
285;DHT22;127;48.770;9.212;2023-05-14T03:11:28;10.40;1.00
285;DHT22;127;48.770;9.212;2023-05-14T03:13:59;10.30;1.00
285;DHT22;127;48.770;9.212;2023-05-14T03:16:28;10.30;1.00
285;DHT22;127;48.770;9.212;2023-05-14T03:19:00;10.30;1.00
285;DHT22;127;48.770;9.212;2023-05-14T03:21:29;10.40;1.00
285;DHT22;127;48.770;9.212;2023-05-14T03:24:02;10.40;1.00
285;DHT22;127;48.770;9.212;2023-05-14T03:26:31;10.40;1.00
285;DHT22;127;48.770;9.212;2023-05-14T03:29:04;10.40;1.00
285;DHT22;127;48.770;9.212;2023-05-14T03:31:43;10.40;1.00
285;DHT22;127;48.770;9.212;2023-05-14T03:34:14;10.40;1.00
285;DHT22;127;48.770;9.212;2023-05-14T03:37:02;10.40;1.00
285;DHT22;127;48.770;9.212;2023-05-14T03:39:34;10.30;1.00
285;DHT22;127;48.770;9.212;2023-05-14T03:42:06;10.30;1.00
285;DHT22;127;48.770;9.212;2023-05-14T03:44:37;10.20;1.00
285;DHT22;127;48.770;9.212;2023-05-14T03:47:08;10.20;1.00
285;DHT22;127;48.770;9.212;2023-05-14T03:49:36;10.20;1.00
285;DHT22;127;48.770;9.212;2023-05-14T03:52:11;10.20;1.00
285;DHT22;127;48.770;9.212;2023-05-14T03:54:40;10.20;1.00
285;DHT22;127;48.770;9.212;2023-05-14T03:57:09;10.20;1.00
285;DHT22;127;48.770;9.212;2023-05-14T03:59:40;10.20;1.00
285;DHT22;127;48.770;9.212;2023-05-14T04:02:09;10.40;1.00
285;DHT22;127;48.770;9.212;2023-05-14T04:04:38;10.40;1.00
285;DHT22;127;48.770;9.212;2023-05-14T04:07:07;10.50;1.00
285;DHT22;127;48.770;9.212;2023-05-14T04:09:36;10.50;1.00
285;DHT22;127;48.770;9.212;2023-05-14T04:12:06;10.50;1.00
285;DHT22;127;48.770;9.212;2023-05-14T04:14:40;10.50;1.00
285;DHT22;127;48.770;9.212;2023-05-14T04:17:09;10.60;1.00
285;DHT22;127;48.770;9.212;2023-05-14T04:19:39;10.60;1.00
285;DHT22;127;48.770;9.212;2023-05-14T04:22:12;10.60;1.00
285;DHT22;127;48.770;9.212;2023-05-14T04:24:41;10.60;1.00
285;DHT22;127;48.770;9.212;2023-05-14T04:27:10;10.70;1.00
285;DHT22;127;48.770;9.212;2023-05-14T04:29:42;10.70;1.00
285;DHT22;127;48.770;9.212;2023-05-14T04:32:11;10.80;1.00
285;DHT22;127;48.770;9.212;2023-05-14T04:34:40;10.80;1.00
285;DHT22;127;48.770;9.212;2023-05-14T04:37:11;10.80;1.00
285;DHT22;127;48.770;9.212;2023-05-14T04:39:42;10.70;1.00
285;DHT22;127;48.770;9.212;2023-05-14T04:42:11;10.80;1.00
285;DHT22;127;48.770;9.212;2023-05-14T04:44:46;10.80;1.00
285;DHT22;127;48.770;9.212;2023-05-14T04:47:15;10.80;1.00
285;DHT22;127;48.770;9.212;2023-05-14T04:49:45;10.90;1.00
285;DHT22;127;48.770;9.212;2023-05-14T04:52:18;10.80;1.00
285;DHT22;127;48.770;9.212;2023-05-14T04:54:51;10.70;1.00
285;DHT22;127;48.770;9.212;2023-05-14T04:57:23;10.70;1.00
285;DHT22;127;48.770;9.212;2023-05-14T04:59:58;10.80;1.00
285;DHT22;127;48.770;9.212;2023-05-14T05:02:26;10.80;1.00
285;DHT22;127;48.770;9.212;2023-05-14T05:04:55;10.80;1.00
285;DHT22;127;48.770;9.212;2023-05-14T05:07:24;10.90;1.00
285;DHT22;127;48.770;9.212;2023-05-14T05:09:53;10.90;1.00
285;DHT22;127;48.770;9.212;2023-05-14T05:12:22;10.80;1.00
285;DHT22;127;48.770;9.212;2023-05-14T05:14:50;10.80;1.00
285;DHT22;127;48.770;9.212;2023-05-14T05:17:22;10.90;1.00
285;DHT22;127;48.770;9.212;2023-05-14T05:19:51;11.00;1.00
285;DHT22;127;48.770;9.212;2023-05-14T05:22:20;11.00;1.00
285;DHT22;127;48.770;9.212;2023-05-14T05:24:49;10.90;1.00
285;DHT22;127;48.770;9.212;2023-05-14T05:27:18;11.00;1.00
285;DHT22;127;48.770;9.212;2023-05-14T05:29:46;11.00;1.00
285;DHT22;127;48.770;9.212;2023-05-14T05:32:17;11.10;1.00
285;DHT22;127;48.770;9.212;2023-05-14T05:34:53;11.10;1.00
285;DHT22;127;48.770;9.212;2023-05-14T05:37:22;11.10;1.00
285;DHT22;127;48.770;9.212;2023-05-14T05:39:54;11.10;99.90
285;DHT22;127;48.770;9.212;2023-05-14T05:42:27;11.10;99.90
285;DHT22;127;48.770;9.212;2023-05-14T05:44:58;11.10;99.90
285;DHT22;127;48.770;9.212;2023-05-14T05:47:28;11.10;99.90
285;DHT22;127;48.770;9.212;2023-05-14T05:50:04;11.20;99.90
285;DHT22;127;48.770;9.212;2023-05-14T05:52:33;11.20;99.90
285;DHT22;127;48.770;9.212;2023-05-14T05:55:02;11.30;99.90
285;DHT22;127;48.770;9.212;2023-05-14T05:57:32;11.40;99.90
285;DHT22;127;48.770;9.212;2023-05-14T06:00:21;11.40;99.90
285;DHT22;127;48.770;9.212;2023-05-14T06:02:55;11.50;99.90
285;DHT22;127;48.770;9.212;2023-05-14T06:22:00;11.80;99.90
285;DHT22;127;48.770;9.212;2023-05-14T06:29:53;11.90;99.90
285;DHT22;127;48.770;9.212;2023-05-14T06:32:37;11.90;99.90
285;DHT22;127;48.770;9.212;2023-05-14T06:35:43;12.00;99.90
285;DHT22;127;48.770;9.212;2023-05-14T06:38:24;12.30;99.90
285;DHT22;127;48.770;9.212;2023-05-14T06:40:54;12.40;99.90
285;DHT22;127;48.770;9.212;2023-05-14T06:43:28;12.50;99.90
285;DHT22;127;48.770;9.212;2023-05-14T06:46:22;12.60;99.90
285;DHT22;127;48.770;9.212;2023-05-14T06:48:51;12.60;99.90
285;DHT22;127;48.770;9.212;2023-05-14T06:51:20;12.60;99.90
285;DHT22;127;48.770;9.212;2023-05-14T07:45:45;14.30;99.90
285;DHT22;127;48.770;9.212;2023-05-14T08:19:23;15.70;99.90
285;DHT22;127;48.770;9.212;2023-05-14T08:22:15;15.80;99.90
285;DHT22;127;48.770;9.212;2023-05-14T08:32:36;16.90;99.90
285;DHT22;127;48.770;9.212;2023-05-14T08:40:19;17.90;99.90
285;DHT22;127;48.770;9.212;2023-05-14T08:43:05;17.90;99.90
285;DHT22;127;48.770;9.212;2023-05-14T08:46:09;18.40;99.90
285;DHT22;127;48.770;9.212;2023-05-14T08:56:48;18.70;99.90
285;DHT22;127;48.770;9.212;2023-05-14T09:02:14;19.60;99.90
285;DHT22;127;48.770;9.212;2023-05-14T09:05:02;19.70;99.90
285;DHT22;127;48.770;9.212;2023-05-14T09:07:34;20.00;99.90
285;DHT22;127;48.770;9.212;2023-05-14T09:23:05;21.60;99.90
285;DHT22;127;48.770;9.212;2023-05-14T09:25:41;22.30;99.90
285;DHT22;127;48.770;9.212;2023-05-14T09:28:10;23.30;99.90
285;DHT22;127;48.770;9.212;2023-05-14T09:30:53;23.50;99.90
285;DHT22;127;48.770;9.212;2023-05-14T09:33:27;25.80;99.90
285;DHT22;127;48.770;9.212;2023-05-14T09:35:58;26.90;99.90
285;DHT22;127;48.770;9.212;2023-05-14T09:38:33;26.20;99.90
285;DHT22;127;48.770;9.212;2023-05-14T09:41:02;25.20;99.90
285;DHT22;127;48.770;9.212;2023-05-14T09:43:36;24.70;99.90
285;DHT22;127;48.770;9.212;2023-05-14T09:46:10;24.90;99.90
285;DHT22;127;48.770;9.212;2023-05-14T09:48:44;24.70;99.90
285;DHT22;127;48.770;9.212;2023-05-14T09:51:15;24.50;99.90
285;DHT22;127;48.770;9.212;2023-05-14T09:53:49;23.30;99.90
285;DHT22;127;48.770;9.212;2023-05-14T09:56:21;20.90;99.90
285;DHT22;127;48.770;9.212;2023-05-14T09:58:50;19.90;99.90
285;DHT22;127;48.770;9.212;2023-05-14T10:01:20;20.00;99.90
285;DHT22;127;48.770;9.212;2023-05-14T10:03:57;19.30;99.90
285;DHT22;127;48.770;9.212;2023-05-14T10:06:27;18.20;99.90
285;DHT22;127;48.770;9.212;2023-05-14T10:09:09;18.30;99.90
285;DHT22;127;48.770;9.212;2023-05-14T10:11:58;18.50;99.90
285;DHT22;127;48.770;9.212;2023-05-14T10:14:37;18.60;99.90
285;DHT22;127;48.770;9.212;2023-05-14T10:17:15;18.80;99.90
285;DHT22;127;48.770;9.212;2023-05-14T10:19:58;18.60;99.90
285;DHT22;127;48.770;9.212;2023-05-14T10:22:32;18.60;99.90
285;DHT22;127;48.770;9.212;2023-05-14T10:25:05;18.70;99.90
285;DHT22;127;48.770;9.212;2023-05-14T10:27:35;18.60;99.90
285;DHT22;127;48.770;9.212;2023-05-14T10:30:14;18.60;99.90
285;DHT22;127;48.770;9.212;2023-05-14T10:32:56;18.60;99.90
285;DHT22;127;48.770;9.212;2023-05-14T10:35:53;18.60;99.90
285;DHT22;127;48.770;9.212;2023-05-14T10:38:36;18.70;99.90
285;DHT22;127;48.770;9.212;2023-05-14T10:41:15;19.20;99.90
285;DHT22;127;48.770;9.212;2023-05-14T10:43:46;19.40;99.90
285;DHT22;127;48.770;9.212;2023-05-14T10:46:15;18.80;99.90
285;DHT22;127;48.770;9.212;2023-05-14T10:48:48;18.70;99.90
285;DHT22;127;48.770;9.212;2023-05-14T10:51:29;19.10;99.90
285;DHT22;127;48.770;9.212;2023-05-14T10:54:00;19.60;99.90
285;DHT22;127;48.770;9.212;2023-05-14T10:56:36;19.50;99.90
285;DHT22;127;48.770;9.212;2023-05-14T10:59:05;20.30;99.90
285;DHT22;127;48.770;9.212;2023-05-14T11:01:35;20.60;99.90
285;DHT22;127;48.770;9.212;2023-05-14T11:04:04;20.30;99.90
285;DHT22;127;48.770;9.212;2023-05-14T11:06:34;21.00;99.90
285;DHT22;127;48.770;9.212;2023-05-14T11:09:06;21.50;99.90
285;DHT22;127;48.770;9.212;2023-05-14T11:11:45;21.80;99.90
285;DHT22;127;48.770;9.212;2023-05-14T11:14:17;21.60;99.90
285;DHT22;127;48.770;9.212;2023-05-14T11:16:47;21.30;99.90
285;DHT22;127;48.770;9.212;2023-05-14T11:19:23;20.50;99.90
285;DHT22;127;48.770;9.212;2023-05-14T11:22:01;20.30;99.90
285;DHT22;127;48.770;9.212;2023-05-14T11:24:31;20.60;99.90
285;DHT22;127;48.770;9.212;2023-05-14T11:27:06;20.50;99.90
285;DHT22;127;48.770;9.212;2023-05-14T11:29:39;20.50;99.90
285;DHT22;127;48.770;9.212;2023-05-14T11:32:19;21.20;99.90
285;DHT22;127;48.770;9.212;2023-05-14T11:35:15;22.20;99.90
285;DHT22;127;48.770;9.212;2023-05-14T11:37:49;22.60;99.90
285;DHT22;127;48.770;9.212;2023-05-14T11:40:23;24.30;99.90
285;DHT22;127;48.770;9.212;2023-05-14T11:42:56;26.90;99.90
285;DHT22;127;48.770;9.212;2023-05-14T11:45:34;25.10;99.90
285;DHT22;127;48.770;9.212;2023-05-14T11:48:11;25.00;99.90
285;DHT22;127;48.770;9.212;2023-05-14T11:50:44;24.80;99.90
285;DHT22;127;48.770;9.212;2023-05-14T11:53:19;24.10;99.90
285;DHT22;127;48.770;9.212;2023-05-14T11:55:48;23.40;99.90
285;DHT22;127;48.770;9.212;2023-05-14T11:58:20;22.60;99.90
285;DHT22;127;48.770;9.212;2023-05-14T12:01:00;22.00;99.90
285;DHT22;127;48.770;9.212;2023-05-14T12:03:34;22.80;99.90
285;DHT22;127;48.770;9.212;2023-05-14T12:06:06;23.90;99.90
285;DHT22;127;48.770;9.212;2023-05-14T12:08:36;25.80;99.90
285;DHT22;127;48.770;9.212;2023-05-14T12:11:08;26.40;99.90
285;DHT22;127;48.770;9.212;2023-05-14T12:13:56;27.00;99.90
285;DHT22;127;48.770;9.212;2023-05-14T12:16:31;25.70;99.90
285;DHT22;127;48.770;9.212;2023-05-14T12:19:08;24.60;99.90
285;DHT22;127;48.770;9.212;2023-05-14T12:21:39;23.40;99.90
285;DHT22;127;48.770;9.212;2023-05-14T12:24:09;22.40;99.90
285;DHT22;127;48.770;9.212;2023-05-14T12:26:38;22.00;99.90
285;DHT22;127;48.770;9.212;2023-05-14T12:29:12;21.50;99.90
285;DHT22;127;48.770;9.212;2023-05-14T12:31:46;20.70;99.90
285;DHT22;127;48.770;9.212;2023-05-14T12:34:17;20.20;99.90
285;DHT22;127;48.770;9.212;2023-05-14T12:36:47;20.70;99.90
285;DHT22;127;48.770;9.212;2023-05-14T12:39:16;20.60;99.90
285;DHT22;127;48.770;9.212;2023-05-14T12:41:49;20.40;99.90
285;DHT22;127;48.770;9.212;2023-05-14T12:44:28;20.30;99.90
285;DHT22;127;48.770;9.212;2023-05-14T12:46:56;19.90;99.90
285;DHT22;127;48.770;9.212;2023-05-14T12:49:25;20.20;99.90
285;DHT22;127;48.770;9.212;2023-05-14T12:51:54;20.70;99.90
285;DHT22;127;48.770;9.212;2023-05-14T12:54:22;22.60;99.90
285;DHT22;127;48.770;9.212;2023-05-14T12:56:51;24.10;99.90
285;DHT22;127;48.770;9.212;2023-05-14T12:59:23;24.80;99.90
285;DHT22;127;48.770;9.212;2023-05-14T13:01:51;26.30;99.90
285;DHT22;127;48.770;9.212;2023-05-14T13:04:20;25.90;99.90
285;DHT22;127;48.770;9.212;2023-05-14T13:06:49;26.30;99.90
285;DHT22;127;48.770;9.212;2023-05-14T13:09:18;26.40;99.90
285;DHT22;127;48.770;9.212;2023-05-14T13:11:47;25.30;99.90
285;DHT22;127;48.770;9.212;2023-05-14T13:14:15;23.80;99.90
285;DHT22;127;48.770;9.212;2023-05-14T13:16:47;22.90;99.90
285;DHT22;127;48.770;9.212;2023-05-14T13:19:18;22.90;99.90
285;DHT22;127;48.770;9.212;2023-05-14T13:21:47;22.50;99.90
285;DHT22;127;48.770;9.212;2023-05-14T13:24:15;21.60;99.90
285;DHT22;127;48.770;9.212;2023-05-14T13:26:44;20.70;99.90
285;DHT22;127;48.770;9.212;2023-05-14T13:29:13;20.30;99.90
285;DHT22;127;48.770;9.212;2023-05-14T13:31:42;20.40;99.90
285;DHT22;127;48.770;9.212;2023-05-14T13:34:25;20.40;99.90
285;DHT22;127;48.770;9.212;2023-05-14T13:37:01;20.70;99.90
285;DHT22;127;48.770;9.212;2023-05-14T13:39:30;22.10;99.90
285;DHT22;127;48.770;9.212;2023-05-14T13:41:58;23.20;99.90
285;DHT22;127;48.770;9.212;2023-05-14T13:44:27;23.20;99.90
285;DHT22;127;48.770;9.212;2023-05-14T13:46:56;22.80;99.90
285;DHT22;127;48.770;9.212;2023-05-14T13:49:29;22.20;99.90
285;DHT22;127;48.770;9.212;2023-05-14T13:52:01;21.40;99.90
285;DHT22;127;48.770;9.212;2023-05-14T13:54:30;20.80;99.90
285;DHT22;127;48.770;9.212;2023-05-14T13:57:00;20.80;99.90
285;DHT22;127;48.770;9.212;2023-05-14T13:59:29;20.50;99.90
285;DHT22;127;48.770;9.212;2023-05-14T14:01:58;20.40;99.90
285;DHT22;127;48.770;9.212;2023-05-14T14:04:33;20.10;99.90
285;DHT22;127;48.770;9.212;2023-05-14T14:07:03;20.00;99.90
285;DHT22;127;48.770;9.212;2023-05-14T14:09:35;20.00;99.90
285;DHT22;127;48.770;9.212;2023-05-14T14:12:08;19.00;99.90
285;DHT22;127;48.770;9.212;2023-05-14T14:14:37;19.20;99.90
285;DHT22;127;48.770;9.212;2023-05-14T14:17:07;19.40;99.90
285;DHT22;127;48.770;9.212;2023-05-14T14:19:43;19.00;99.90
285;DHT22;127;48.770;9.212;2023-05-14T14:22:14;18.40;99.90
285;DHT22;127;48.770;9.212;2023-05-14T14:24:45;18.70;99.90
285;DHT22;127;48.770;9.212;2023-05-14T14:27:13;19.50;99.90
285;DHT22;127;48.770;9.212;2023-05-14T14:29:42;20.40;99.90
285;DHT22;127;48.770;9.212;2023-05-14T14:32:11;21.30;99.90
285;DHT22;127;48.770;9.212;2023-05-14T14:34:43;21.60;99.90
285;DHT22;127;48.770;9.212;2023-05-14T14:37:11;22.50;99.90
285;DHT22;127;48.770;9.212;2023-05-14T14:39:42;23.90;99.90
285;DHT22;127;48.770;9.212;2023-05-14T14:42:11;24.60;99.90
285;DHT22;127;48.770;9.212;2023-05-14T14:44:40;24.80;99.90
285;DHT22;127;48.770;9.212;2023-05-14T14:47:11;24.10;99.90
285;DHT22;127;48.770;9.212;2023-05-14T14:49:42;23.70;99.90
285;DHT22;127;48.770;9.212;2023-05-14T14:52:11;23.40;99.90
285;DHT22;127;48.770;9.212;2023-05-14T14:54:40;23.60;99.90
285;DHT22;127;48.770;9.212;2023-05-14T14:57:08;23.30;99.90
285;DHT22;127;48.770;9.212;2023-05-14T14:59:40;23.40;99.90
285;DHT22;127;48.770;9.212;2023-05-14T15:02:09;24.00;99.90
285;DHT22;127;48.770;9.212;2023-05-14T15:04:37;24.70;99.90
285;DHT22;127;48.770;9.212;2023-05-14T15:07:09;25.30;99.90
285;DHT22;127;48.770;9.212;2023-05-14T15:09:38;25.70;99.90
285;DHT22;127;48.770;9.212;2023-05-14T15:12:07;24.40;99.90
285;DHT22;127;48.770;9.212;2023-05-14T15:14:35;24.40;99.90
285;DHT22;127;48.770;9.212;2023-05-14T15:17:04;24.50;99.90
285;DHT22;127;48.770;9.212;2023-05-14T15:19:33;24.40;99.90
285;DHT22;127;48.770;9.212;2023-05-14T15:22:01;23.50;99.90
285;DHT22;127;48.770;9.212;2023-05-14T15:24:33;22.20;99.90
285;DHT22;127;48.770;9.212;2023-05-14T15:27:03;21.50;99.90
285;DHT22;127;48.770;9.212;2023-05-14T15:29:37;21.00;99.90
285;DHT22;127;48.770;9.212;2023-05-14T15:43:29;15.90;99.90
285;DHT22;127;48.770;9.212;2023-05-14T20:00:19;12.20;99.90
285;DHT22;127;48.770;9.212;2023-05-14T20:02:53;12.40;99.90
285;DHT22;127;48.770;9.212;2023-05-14T20:05:24;12.40;99.90
285;DHT22;127;48.770;9.212;2023-05-14T20:07:53;12.50;99.90
285;DHT22;127;48.770;9.212;2023-05-14T20:10:23;12.50;99.90
285;DHT22;127;48.770;9.212;2023-05-14T20:13:02;12.60;99.90
285;DHT22;127;48.770;9.212;2023-05-14T20:15:37;12.50;99.90
285;DHT22;127;48.770;9.212;2023-05-14T20:18:13;12.40;99.90
285;DHT22;127;48.770;9.212;2023-05-14T20:20:47;12.30;99.90
285;DHT22;127;48.770;9.212;2023-05-14T20:23:33;12.20;99.90
285;DHT22;127;48.770;9.212;2023-05-14T20:26:08;12.10;99.90
285;DHT22;127;48.770;9.212;2023-05-14T20:28:40;12.00;99.90
285;DHT22;127;48.770;9.212;2023-05-14T20:31:27;11.90;99.90
285;DHT22;127;48.770;9.212;2023-05-14T20:34:31;11.80;99.90
285;DHT22;127;48.770;9.212;2023-05-14T20:36:59;11.60;99.90
285;DHT22;127;48.770;9.212;2023-05-14T20:39:30;11.60;99.90
285;DHT22;127;48.770;9.212;2023-05-14T20:41:59;11.40;99.90
285;DHT22;127;48.770;9.212;2023-05-14T20:44:30;11.40;99.90
285;DHT22;127;48.770;9.212;2023-05-14T20:47:02;11.30;99.90
285;DHT22;127;48.770;9.212;2023-05-14T20:49:31;11.20;99.90
285;DHT22;127;48.770;9.212;2023-05-14T20:52:00;11.20;99.90
285;DHT22;127;48.770;9.212;2023-05-14T20:54:28;11.10;99.90
285;DHT22;127;48.770;9.212;2023-05-14T20:57:13;11.00;99.90
285;DHT22;127;48.770;9.212;2023-05-14T20:59:44;11.00;99.90
285;DHT22;127;48.770;9.212;2023-05-14T21:02:16;10.90;99.90
285;DHT22;127;48.770;9.212;2023-05-14T21:04:45;10.90;99.90
285;DHT22;127;48.770;9.212;2023-05-14T21:07:14;10.90;99.90
285;DHT22;127;48.770;9.212;2023-05-14T21:09:43;10.90;99.90
285;DHT22;127;48.770;9.212;2023-05-14T21:12:20;10.70;99.90
285;DHT22;127;48.770;9.212;2023-05-14T21:14:50;10.70;99.90
285;DHT22;127;48.770;9.212;2023-05-14T21:17:21;10.70;99.90
285;DHT22;127;48.770;9.212;2023-05-14T21:19:52;10.70;99.90
285;DHT22;127;48.770;9.212;2023-05-14T21:22:21;10.70;99.90
285;DHT22;127;48.770;9.212;2023-05-14T21:24:53;10.60;99.90
285;DHT22;127;48.770;9.212;2023-05-14T21:27:27;10.60;99.90
285;DHT22;127;48.770;9.212;2023-05-14T21:29:56;10.60;99.90
285;DHT22;127;48.770;9.212;2023-05-14T21:32:30;10.50;99.90
285;DHT22;127;48.770;9.212;2023-05-14T21:35:24;10.50;99.90
285;DHT22;127;48.770;9.212;2023-05-14T21:42:42;10.40;99.90
285;DHT22;127;48.770;9.212;2023-05-14T21:50:04;10.50;99.90
285;DHT22;127;48.770;9.212;2023-05-14T21:52:40;10.60;99.90
285;DHT22;127;48.770;9.212;2023-05-14T21:55:21;10.70;99.90
285;DHT22;127;48.770;9.212;2023-05-14T21:57:55;10.70;99.90
285;DHT22;127;48.770;9.212;2023-05-14T22:00:36;10.70;99.90
285;DHT22;127;48.770;9.212;2023-05-14T22:03:12;10.70;99.90
285;DHT22;127;48.770;9.212;2023-05-14T22:06:05;10.80;99.90
285;DHT22;127;48.770;9.212;2023-05-14T22:08:39;10.70;99.90
285;DHT22;127;48.770;9.212;2023-05-14T22:11:09;10.70;99.90
285;DHT22;127;48.770;9.212;2023-05-14T22:13:45;10.70;99.90
285;DHT22;127;48.770;9.212;2023-05-14T22:16:16;10.70;99.90
285;DHT22;127;48.770;9.212;2023-05-14T22:18:48;10.70;99.90
285;DHT22;127;48.770;9.212;2023-05-14T22:21:20;10.60;99.90
285;DHT22;127;48.770;9.212;2023-05-14T22:24:04;10.60;99.90
285;DHT22;127;48.770;9.212;2023-05-14T22:26:34;10.60;99.90
285;DHT22;127;48.770;9.212;2023-05-14T22:29:07;10.60;99.90
285;DHT22;127;48.770;9.212;2023-05-14T22:31:41;10.50;99.90
285;DHT22;127;48.770;9.212;2023-05-14T22:34:19;10.50;99.90
285;DHT22;127;48.770;9.212;2023-05-14T22:42:25;10.40;99.90
285;DHT22;127;48.770;9.212;2023-05-14T22:43:29;10.30;99.90
285;DHT22;127;48.770;9.212;2023-05-14T22:47:25;10.20;99.90
285;DHT22;127;48.770;9.212;2023-05-14T22:54:07;10.10;99.90
285;DHT22;127;48.770;9.212;2023-05-14T22:56:37;10.00;99.90
285;DHT22;127;48.770;9.212;2023-05-14T22:59:08;10.00;99.90
285;DHT22;127;48.770;9.212;2023-05-14T23:01:40;9.90;99.90
285;DHT22;127;48.770;9.212;2023-05-14T23:04:10;9.90;99.90
285;DHT22;127;48.770;9.212;2023-05-14T23:06:40;9.90;99.90
285;DHT22;127;48.770;9.212;2023-05-14T23:09:11;9.80;99.90
285;DHT22;127;48.770;9.212;2023-05-14T23:11:40;9.80;99.90
285;DHT22;127;48.770;9.212;2023-05-14T23:14:09;9.70;99.90
285;DHT22;127;48.770;9.212;2023-05-14T23:16:38;9.70;99.90
285;DHT22;127;48.770;9.212;2023-05-14T23:19:07;9.60;99.90
285;DHT22;127;48.770;9.212;2023-05-14T23:21:38;9.60;99.90
285;DHT22;127;48.770;9.212;2023-05-14T23:24:07;9.60;99.90
285;DHT22;127;48.770;9.212;2023-05-14T23:26:41;9.50;99.90
285;DHT22;127;48.770;9.212;2023-05-14T23:29:16;9.50;99.90
285;DHT22;127;48.770;9.212;2023-05-14T23:31:51;9.40;99.90
285;DHT22;127;48.770;9.212;2023-05-14T23:34:22;9.40;99.90
285;DHT22;127;48.770;9.212;2023-05-14T23:36:51;9.40;99.90
285;DHT22;127;48.770;9.212;2023-05-14T23:39:23;9.40;99.90
285;DHT22;127;48.770;9.212;2023-05-14T23:41:54;9.40;99.90
285;DHT22;127;48.770;9.212;2023-05-14T23:44:34;9.30;99.90
285;DHT22;127;48.770;9.212;2023-05-14T23:47:04;9.30;99.90
285;DHT22;127;48.770;9.212;2023-05-14T23:49:33;9.30;99.90
285;DHT22;127;48.770;9.212;2023-05-14T23:52:10;9.30;99.90
285;DHT22;127;48.770;9.212;2023-05-14T23:54:43;9.30;99.90
285;DHT22;127;48.770;9.212;2023-05-14T23:57:14;9.30;99.90
285;DHT22;127;48.770;9.212;2023-05-14T23:59:43;9.30;99.90
